sensor_id;sensor_type;location;lat;lon;timestamp;P1;durP1;ratioP1;P2;durP2;ratioP2
21243;SDS011;10780;50.942;4.028;2022-12-18T00:00:29;96.35;;;44.67;;
21243;SDS011;10780;50.942;4.028;2022-12-18T00:02:55;89.60;;;44.10;;
21243;SDS011;10780;50.942;4.028;2022-12-18T00:05:21;86.75;;;43.30;;
21243;SDS011;10780;50.942;4.028;2022-12-18T00:07:46;88.30;;;43.47;;
21243;SDS011;10780;50.942;4.028;2022-12-18T00:10:12;92.68;;;44.80;;
21243;SDS011;10780;50.942;4.028;2022-12-18T00:12:37;92.88;;;42.08;;
21243;SDS011;10780;50.942;4.028;2022-12-18T00:15:03;85.95;;;40.05;;
21243;SDS011;10780;50.942;4.028;2022-12-18T00:17:29;90.22;;;43.90;;
21243;SDS011;10780;50.942;4.028;2022-12-18T00:19:54;88.63;;;42.65;;
21243;SDS011;10780;50.942;4.028;2022-12-18T00:22:20;92.07;;;43.13;;
21243;SDS011;10780;50.942;4.028;2022-12-18T00:24:46;87.97;;;42.45;;
21243;SDS011;10780;50.942;4.028;2022-12-18T00:27:11;87.72;;;41.75;;
21243;SDS011;10780;50.942;4.028;2022-12-18T00:29:37;86.05;;;41.28;;
21243;SDS011;10780;50.942;4.028;2022-12-18T00:32:02;94.47;;;46.45;;
21243;SDS011;10780;50.942;4.028;2022-12-18T00:34:28;95.35;;;49.55;;
21243;SDS011;10780;50.942;4.028;2022-12-18T00:36:54;98.45;;;45.83;;
21243;SDS011;10780;50.942;4.028;2022-12-18T00:39:19;88.60;;;44.05;;
21243;SDS011;10780;50.942;4.028;2022-12-18T00:41:45;77.85;;;40.40;;
21243;SDS011;10780;50.942;4.028;2022-12-18T00:44:30;84.20;;;39.53;;
21243;SDS011;10780;50.942;4.028;2022-12-18T00:46:55;79.88;;;37.42;;
21243;SDS011;10780;50.942;4.028;2022-12-18T00:49:21;79.28;;;39.55;;
21243;SDS011;10780;50.942;4.028;2022-12-18T00:51:47;80.97;;;38.63;;
21243;SDS011;10780;50.942;4.028;2022-12-18T00:54:13;75.80;;;39.50;;
21243;SDS011;10780;50.942;4.028;2022-12-18T00:56:39;81.72;;;38.85;;
21243;SDS011;10780;50.942;4.028;2022-12-18T00:59:05;73.63;;;37.80;;
21243;SDS011;10780;50.942;4.028;2022-12-18T01:01:31;75.80;;;38.25;;
21243;SDS011;10780;50.942;4.028;2022-12-18T01:03:57;72.93;;;36.65;;
21243;SDS011;10780;50.942;4.028;2022-12-18T01:06:24;71.72;;;35.72;;
21243;SDS011;10780;50.942;4.028;2022-12-18T01:08:49;72.40;;;35.45;;
21243;SDS011;10780;50.942;4.028;2022-12-18T01:11:16;75.65;;;36.53;;
21243;SDS011;10780;50.942;4.028;2022-12-18T01:13:44;77.50;;;36.95;;
21243;SDS011;10780;50.942;4.028;2022-12-18T01:16:11;72.30;;;34.80;;
21243;SDS011;10780;50.942;4.028;2022-12-18T01:18:37;69.55;;;36.33;;
21243;SDS011;10780;50.942;4.028;2022-12-18T01:21:10;75.93;;;35.42;;
21243;SDS011;10780;50.942;4.028;2022-12-18T01:23:42;75.53;;;35.35;;
21243;SDS011;10780;50.942;4.028;2022-12-18T01:26:08;68.30;;;33.47;;
21243;SDS011;10780;50.942;4.028;2022-12-18T01:28:40;74.95;;;35.90;;
21243;SDS011;10780;50.942;4.028;2022-12-18T01:31:09;64.55;;;33.08;;
21243;SDS011;10780;50.942;4.028;2022-12-18T01:33:43;66.55;;;33.50;;
21243;SDS011;10780;50.942;4.028;2022-12-18T01:36:13;79.03;;;36.05;;
21243;SDS011;10780;50.942;4.028;2022-12-18T01:38:41;72.60;;;34.35;;
21243;SDS011;10780;50.942;4.028;2022-12-18T01:41:08;72.60;;;33.15;;
21243;SDS011;10780;50.942;4.028;2022-12-18T01:43:44;71.63;;;31.63;;
21243;SDS011;10780;50.942;4.028;2022-12-18T01:46:15;65.18;;;33.65;;
21243;SDS011;10780;50.942;4.028;2022-12-18T01:48:41;68.60;;;33.22;;
21243;SDS011;10780;50.942;4.028;2022-12-18T01:51:09;68.65;;;33.65;;
21243;SDS011;10780;50.942;4.028;2022-12-18T01:53:36;69.72;;;31.92;;
21243;SDS011;10780;50.942;4.028;2022-12-18T01:56:02;68.82;;;31.88;;
21243;SDS011;10780;50.942;4.028;2022-12-18T01:58:52;64.47;;;31.27;;
21243;SDS011;10780;50.942;4.028;2022-12-18T02:01:25;57.60;;;30.80;;
21243;SDS011;10780;50.942;4.028;2022-12-18T02:03:51;63.15;;;30.13;;
21243;SDS011;10780;50.942;4.028;2022-12-18T02:09:01;63.35;;;28.92;;
21243;SDS011;10780;50.942;4.028;2022-12-18T02:14:31;63.25;;;28.77;;
21243;SDS011;10780;50.942;4.028;2022-12-18T02:17:11;60.55;;;31.42;;
21243;SDS011;10780;50.942;4.028;2022-12-18T02:27:51;70.15;;;33.05;;
21243;SDS011;10780;50.942;4.028;2022-12-18T02:30:18;65.00;;;31.98;;
21243;SDS011;10780;50.942;4.028;2022-12-18T02:32:49;69.50;;;32.15;;
21243;SDS011;10780;50.942;4.028;2022-12-18T02:35:20;74.45;;;31.48;;
21243;SDS011;10780;50.942;4.028;2022-12-18T02:37:49;58.75;;;29.80;;
21243;SDS011;10780;50.942;4.028;2022-12-18T02:40:16;69.25;;;32.22;;
21243;SDS011;10780;50.942;4.028;2022-12-18T02:42:44;66.65;;;29.90;;
21243;SDS011;10780;50.942;4.028;2022-12-18T02:45:09;64.90;;;29.83;;
21243;SDS011;10780;50.942;4.028;2022-12-18T02:47:36;64.75;;;29.00;;
21243;SDS011;10780;50.942;4.028;2022-12-18T03:01:19;50.92;;;26.02;;
21243;SDS011;10780;50.942;4.028;2022-12-18T03:03:57;55.60;;;26.05;;
21243;SDS011;10780;50.942;4.028;2022-12-18T03:06:33;53.88;;;26.20;;
21243;SDS011;10780;50.942;4.028;2022-12-18T03:09:08;53.63;;;26.80;;
21243;SDS011;10780;50.942;4.028;2022-12-18T03:11:40;51.25;;;25.30;;
21243;SDS011;10780;50.942;4.028;2022-12-18T03:14:29;43.63;;;23.85;;
21243;SDS011;10780;50.942;4.028;2022-12-18T03:16:58;58.05;;;26.05;;
21243;SDS011;10780;50.942;4.028;2022-12-18T03:19:27;55.58;;;26.25;;
21243;SDS011;10780;50.942;4.028;2022-12-18T03:21:56;49.13;;;25.15;;
21243;SDS011;10780;50.942;4.028;2022-12-18T03:24:24;51.28;;;23.38;;
21243;SDS011;10780;50.942;4.028;2022-12-18T03:26:53;50.17;;;25.35;;
21243;SDS011;10780;50.942;4.028;2022-12-18T03:29:24;51.45;;;25.60;;
21243;SDS011;10780;50.942;4.028;2022-12-18T03:31:54;45.72;;;23.10;;
21243;SDS011;10780;50.942;4.028;2022-12-18T03:34:24;53.03;;;24.42;;
21243;SDS011;10780;50.942;4.028;2022-12-18T03:36:54;53.88;;;24.35;;
21243;SDS011;10780;50.942;4.028;2022-12-18T03:39:20;50.20;;;24.00;;
21243;SDS011;10780;50.942;4.028;2022-12-18T03:44:53;49.38;;;23.83;;
21243;SDS011;10780;50.942;4.028;2022-12-18T03:48:13;54.17;;;21.08;;
21243;SDS011;10780;50.942;4.028;2022-12-18T03:55:42;43.47;;;20.23;;
21243;SDS011;10780;50.942;4.028;2022-12-18T03:58:09;50.50;;;21.67;;
21243;SDS011;10780;50.942;4.028;2022-12-18T04:00:38;46.10;;;22.80;;
21243;SDS011;10780;50.942;4.028;2022-12-18T04:03:04;54.55;;;23.33;;
21243;SDS011;10780;50.942;4.028;2022-12-18T04:05:33;45.03;;;20.35;;
21243;SDS011;10780;50.942;4.028;2022-12-18T04:07:59;37.45;;;20.50;;
21243;SDS011;10780;50.942;4.028;2022-12-18T04:10:26;42.53;;;20.38;;
21243;SDS011;10780;50.942;4.028;2022-12-18T04:12:55;46.67;;;21.10;;
21243;SDS011;10780;50.942;4.028;2022-12-18T04:15:21;42.42;;;19.67;;
21243;SDS011;10780;50.942;4.028;2022-12-18T04:17:48;41.95;;;20.65;;
21243;SDS011;10780;50.942;4.028;2022-12-18T04:20:14;47.75;;;21.83;;
21243;SDS011;10780;50.942;4.028;2022-12-18T04:22:41;43.08;;;21.00;;
21243;SDS011;10780;50.942;4.028;2022-12-18T04:25:07;40.50;;;20.73;;
21243;SDS011;10780;50.942;4.028;2022-12-18T04:27:33;37.25;;;19.77;;
21243;SDS011;10780;50.942;4.028;2022-12-18T04:29:58;46.75;;;21.27;;
21243;SDS011;10780;50.942;4.028;2022-12-18T04:32:24;47.20;;;21.83;;
21243;SDS011;10780;50.942;4.028;2022-12-18T04:34:50;47.58;;;22.63;;
21243;SDS011;10780;50.942;4.028;2022-12-18T04:37:15;42.70;;;19.63;;
21243;SDS011;10780;50.942;4.028;2022-12-18T04:39:41;43.28;;;19.98;;
21243;SDS011;10780;50.942;4.028;2022-12-18T04:42:07;40.28;;;19.38;;
21243;SDS011;10780;50.942;4.028;2022-12-18T04:44:32;43.47;;;19.63;;
21243;SDS011;10780;50.942;4.028;2022-12-18T04:46:58;43.10;;;20.65;;
21243;SDS011;10780;50.942;4.028;2022-12-18T04:49:24;43.90;;;20.30;;
21243;SDS011;10780;50.942;4.028;2022-12-18T04:51:49;42.25;;;19.75;;
21243;SDS011;10780;50.942;4.028;2022-12-18T04:54:15;40.22;;;20.13;;
21243;SDS011;10780;50.942;4.028;2022-12-18T04:56:41;42.85;;;19.17;;
21243;SDS011;10780;50.942;4.028;2022-12-18T04:59:06;41.95;;;19.65;;
21243;SDS011;10780;50.942;4.028;2022-12-18T05:01:32;39.83;;;19.10;;
21243;SDS011;10780;50.942;4.028;2022-12-18T05:03:58;45.42;;;19.42;;
21243;SDS011;10780;50.942;4.028;2022-12-18T05:06:23;37.58;;;18.40;;
21243;SDS011;10780;50.942;4.028;2022-12-18T05:08:49;40.63;;;18.88;;
21243;SDS011;10780;50.942;4.028;2022-12-18T05:11:14;32.13;;;17.75;;
21243;SDS011;10780;50.942;4.028;2022-12-18T05:13:40;32.47;;;17.77;;
21243;SDS011;10780;50.942;4.028;2022-12-18T05:16:07;35.90;;;17.58;;
21243;SDS011;10780;50.942;4.028;2022-12-18T05:18:33;39.47;;;17.42;;
21243;SDS011;10780;50.942;4.028;2022-12-18T05:20:59;40.33;;;18.75;;
21243;SDS011;10780;50.942;4.028;2022-12-18T05:23:25;35.42;;;17.45;;
21243;SDS011;10780;50.942;4.028;2022-12-18T05:25:51;35.40;;;18.00;;
21243;SDS011;10780;50.942;4.028;2022-12-18T05:28:21;37.50;;;17.85;;
21243;SDS011;10780;50.942;4.028;2022-12-18T05:30:53;35.35;;;17.73;;
21243;SDS011;10780;50.942;4.028;2022-12-18T05:33:20;33.20;;;17.25;;
21243;SDS011;10780;50.942;4.028;2022-12-18T05:35:51;36.05;;;17.45;;
21243;SDS011;10780;50.942;4.028;2022-12-18T05:38:18;34.45;;;16.00;;
21243;SDS011;10780;50.942;4.028;2022-12-18T05:40:44;35.42;;;16.63;;
21243;SDS011;10780;50.942;4.028;2022-12-18T05:43:10;34.83;;;18.05;;
21243;SDS011;10780;50.942;4.028;2022-12-18T05:45:38;35.03;;;17.98;;
21243;SDS011;10780;50.942;4.028;2022-12-18T05:48:05;37.60;;;18.40;;
21243;SDS011;10780;50.942;4.028;2022-12-18T05:50:33;37.83;;;18.10;;
21243;SDS011;10780;50.942;4.028;2022-12-18T05:53:00;36.67;;;16.13;;
21243;SDS011;10780;50.942;4.028;2022-12-18T05:55:27;33.97;;;17.83;;
21243;SDS011;10780;50.942;4.028;2022-12-18T05:57:52;30.17;;;16.95;;
21243;SDS011;10780;50.942;4.028;2022-12-18T06:00:18;33.22;;;16.88;;
21243;SDS011;10780;50.942;4.028;2022-12-18T06:02:46;36.83;;;18.25;;
21243;SDS011;10780;50.942;4.028;2022-12-18T06:05:12;43.58;;;18.92;;
21243;SDS011;10780;50.942;4.028;2022-12-18T06:07:37;38.60;;;18.50;;
21243;SDS011;10780;50.942;4.028;2022-12-18T06:10:03;37.00;;;18.70;;
21243;SDS011;10780;50.942;4.028;2022-12-18T06:12:29;34.00;;;17.23;;
21243;SDS011;10780;50.942;4.028;2022-12-18T06:14:55;38.85;;;17.80;;
21243;SDS011;10780;50.942;4.028;2022-12-18T06:17:21;34.72;;;18.58;;
21243;SDS011;10780;50.942;4.028;2022-12-18T06:19:46;31.23;;;17.88;;
21243;SDS011;10780;50.942;4.028;2022-12-18T06:22:12;38.50;;;17.80;;
21243;SDS011;10780;50.942;4.028;2022-12-18T06:24:37;34.85;;;17.48;;
21243;SDS011;10780;50.942;4.028;2022-12-18T06:27:03;35.47;;;18.17;;
21243;SDS011;10780;50.942;4.028;2022-12-18T06:29:29;38.38;;;18.30;;
21243;SDS011;10780;50.942;4.028;2022-12-18T06:31:54;36.67;;;17.98;;
21243;SDS011;10780;50.942;4.028;2022-12-18T06:34:20;38.25;;;17.98;;
21243;SDS011;10780;50.942;4.028;2022-12-18T06:36:45;32.28;;;17.10;;
21243;SDS011;10780;50.942;4.028;2022-12-18T06:39:11;34.03;;;18.00;;
21243;SDS011;10780;50.942;4.028;2022-12-18T06:41:36;39.83;;;18.48;;
21243;SDS011;10780;50.942;4.028;2022-12-18T06:44:02;33.42;;;17.15;;
21243;SDS011;10780;50.942;4.028;2022-12-18T06:46:28;37.08;;;18.75;;
21243;SDS011;10780;50.942;4.028;2022-12-18T06:48:53;34.13;;;17.45;;
21243;SDS011;10780;50.942;4.028;2022-12-18T06:51:20;34.10;;;17.80;;
21243;SDS011;10780;50.942;4.028;2022-12-18T06:53:46;28.17;;;16.02;;
21243;SDS011;10780;50.942;4.028;2022-12-18T06:56:12;32.92;;;17.02;;
21243;SDS011;10780;50.942;4.028;2022-12-18T06:58:38;31.08;;;15.68;;
21243;SDS011;10780;50.942;4.028;2022-12-18T07:01:05;30.80;;;15.20;;
21243;SDS011;10780;50.942;4.028;2022-12-18T07:03:33;30.35;;;16.23;;
21243;SDS011;10780;50.942;4.028;2022-12-18T07:05:59;27.20;;;15.05;;
21243;SDS011;10780;50.942;4.028;2022-12-18T07:08:24;31.88;;;16.67;;
21243;SDS011;10780;50.942;4.028;2022-12-18T07:10:50;31.88;;;15.90;;
21243;SDS011;10780;50.942;4.028;2022-12-18T07:13:16;32.50;;;16.98;;
21243;SDS011;10780;50.942;4.028;2022-12-18T07:15:42;34.40;;;15.85;;
21243;SDS011;10780;50.942;4.028;2022-12-18T07:18:08;31.77;;;15.38;;
21243;SDS011;10780;50.942;4.028;2022-12-18T07:20:34;29.83;;;14.45;;
21243;SDS011;10780;50.942;4.028;2022-12-18T07:23:01;31.55;;;14.85;;
21243;SDS011;10780;50.942;4.028;2022-12-18T07:25:28;29.75;;;16.33;;
21243;SDS011;10780;50.942;4.028;2022-12-18T07:27:54;30.17;;;15.90;;
21243;SDS011;10780;50.942;4.028;2022-12-18T07:30:19;23.83;;;13.73;;
21243;SDS011;10780;50.942;4.028;2022-12-18T07:32:45;30.00;;;14.82;;
21243;SDS011;10780;50.942;4.028;2022-12-18T07:35:10;25.38;;;14.50;;
21243;SDS011;10780;50.942;4.028;2022-12-18T07:37:36;27.80;;;14.65;;
21243;SDS011;10780;50.942;4.028;2022-12-18T07:40:02;29.40;;;14.60;;
21243;SDS011;10780;50.942;4.028;2022-12-18T07:42:27;29.02;;;14.50;;
21243;SDS011;10780;50.942;4.028;2022-12-18T07:44:56;28.65;;;13.25;;
21243;SDS011;10780;50.942;4.028;2022-12-18T07:47:22;25.02;;;12.93;;
21243;SDS011;10780;50.942;4.028;2022-12-18T07:49:48;26.90;;;13.15;;
21243;SDS011;10780;50.942;4.028;2022-12-18T07:52:13;28.00;;;13.23;;
21243;SDS011;10780;50.942;4.028;2022-12-18T07:54:39;28.23;;;13.88;;
21243;SDS011;10780;50.942;4.028;2022-12-18T07:57:08;29.52;;;13.57;;
21243;SDS011;10780;50.942;4.028;2022-12-18T07:59:34;27.48;;;13.38;;
21243;SDS011;10780;50.942;4.028;2022-12-18T08:01:59;25.73;;;14.18;;
21243;SDS011;10780;50.942;4.028;2022-12-18T08:04:25;28.10;;;15.48;;
21243;SDS011;10780;50.942;4.028;2022-12-18T08:06:51;23.60;;;13.73;;
21243;SDS011;10780;50.942;4.028;2022-12-18T08:09:17;20.52;;;12.38;;
21243;SDS011;10780;50.942;4.028;2022-12-18T08:11:43;23.02;;;13.50;;
21243;SDS011;10780;50.942;4.028;2022-12-18T08:14:08;25.98;;;13.15;;
21243;SDS011;10780;50.942;4.028;2022-12-18T08:16:34;23.58;;;12.32;;
21243;SDS011;10780;50.942;4.028;2022-12-18T08:19:00;22.02;;;11.50;;
21243;SDS011;10780;50.942;4.028;2022-12-18T08:21:27;17.45;;;9.95;;
21243;SDS011;10780;50.942;4.028;2022-12-18T08:23:54;15.45;;;9.25;;
21243;SDS011;10780;50.942;4.028;2022-12-18T08:26:21;15.20;;;8.90;;
21243;SDS011;10780;50.942;4.028;2022-12-18T08:28:48;16.85;;;9.52;;
21243;SDS011;10780;50.942;4.028;2022-12-18T08:31:14;15.00;;;9.48;;
21243;SDS011;10780;50.942;4.028;2022-12-18T08:33:40;17.65;;;9.90;;
21243;SDS011;10780;50.942;4.028;2022-12-18T08:36:06;16.80;;;9.95;;
21243;SDS011;10780;50.942;4.028;2022-12-18T08:38:33;19.02;;;10.70;;
21243;SDS011;10780;50.942;4.028;2022-12-18T08:40:59;17.10;;;9.18;;
21243;SDS011;10780;50.942;4.028;2022-12-18T08:43:26;17.77;;;10.02;;
21243;SDS011;10780;50.942;4.028;2022-12-18T08:46:10;18.83;;;10.15;;
21243;SDS011;10780;50.942;4.028;2022-12-18T08:48:36;20.42;;;10.88;;
21243;SDS011;10780;50.942;4.028;2022-12-18T08:51:02;18.92;;;11.25;;
21243;SDS011;10780;50.942;4.028;2022-12-18T08:53:28;16.15;;;9.63;;
21243;SDS011;10780;50.942;4.028;2022-12-18T08:55:55;20.83;;;11.43;;
21243;SDS011;10780;50.942;4.028;2022-12-18T08:58:21;19.33;;;10.90;;
21243;SDS011;10780;50.942;4.028;2022-12-18T09:00:47;20.08;;;11.13;;
21243;SDS011;10780;50.942;4.028;2022-12-18T09:03:16;16.42;;;11.02;;
21243;SDS011;10780;50.942;4.028;2022-12-18T09:05:43;17.85;;;10.40;;
21243;SDS011;10780;50.942;4.028;2022-12-18T09:08:10;17.48;;;10.82;;
21243;SDS011;10780;50.942;4.028;2022-12-18T09:10:43;17.35;;;10.45;;
21243;SDS011;10780;50.942;4.028;2022-12-18T09:13:10;19.35;;;11.48;;
21243;SDS011;10780;50.942;4.028;2022-12-18T09:15:47;19.33;;;10.90;;
21243;SDS011;10780;50.942;4.028;2022-12-18T09:18:14;19.25;;;10.75;;
21243;SDS011;10780;50.942;4.028;2022-12-18T09:20:41;20.10;;;11.75;;
21243;SDS011;10780;50.942;4.028;2022-12-18T09:23:07;20.10;;;11.18;;
21243;SDS011;10780;50.942;4.028;2022-12-18T09:25:34;19.02;;;10.82;;
21243;SDS011;10780;50.942;4.028;2022-12-18T09:28:01;17.15;;;10.73;;
21243;SDS011;10780;50.942;4.028;2022-12-18T09:30:28;17.95;;;10.95;;
21243;SDS011;10780;50.942;4.028;2022-12-18T09:32:54;19.63;;;10.82;;
21243;SDS011;10780;50.942;4.028;2022-12-18T09:35:20;20.73;;;10.98;;
21243;SDS011;10780;50.942;4.028;2022-12-18T09:37:45;21.98;;;12.55;;
21243;SDS011;10780;50.942;4.028;2022-12-18T09:40:18;23.38;;;12.80;;
21243;SDS011;10780;50.942;4.028;2022-12-18T09:42:52;24.77;;;13.50;;
21243;SDS011;10780;50.942;4.028;2022-12-18T09:45:22;20.83;;;12.98;;
21243;SDS011;10780;50.942;4.028;2022-12-18T09:47:49;22.75;;;11.60;;
21243;SDS011;10780;50.942;4.028;2022-12-18T09:52:56;22.38;;;13.05;;
21243;SDS011;10780;50.942;4.028;2022-12-18T10:00:43;19.35;;;12.30;;
21243;SDS011;10780;50.942;4.028;2022-12-18T10:03:09;20.17;;;12.43;;
21243;SDS011;10780;50.942;4.028;2022-12-18T10:05:39;21.98;;;12.82;;
21243;SDS011;10780;50.942;4.028;2022-12-18T10:08:18;22.38;;;12.88;;
21243;SDS011;10780;50.942;4.028;2022-12-18T10:11:22;19.10;;;12.02;;
21243;SDS011;10780;50.942;4.028;2022-12-18T10:19:23;20.70;;;12.30;;
21243;SDS011;10780;50.942;4.028;2022-12-18T10:25:28;15.48;;;10.40;;
21243;SDS011;10780;50.942;4.028;2022-12-18T10:27:48;21.60;;;12.30;;
21243;SDS011;10780;50.942;4.028;2022-12-18T10:30:23;18.85;;;11.52;;
21243;SDS011;10780;50.942;4.028;2022-12-18T10:32:50;22.10;;;12.75;;
21243;SDS011;10780;50.942;4.028;2022-12-18T10:35:22;21.25;;;11.95;;
21243;SDS011;10780;50.942;4.028;2022-12-18T10:38:00;20.10;;;11.35;;
21243;SDS011;10780;50.942;4.028;2022-12-18T10:40:28;23.63;;;12.32;;
21243;SDS011;10780;50.942;4.028;2022-12-18T10:43:11;22.20;;;12.25;;
21243;SDS011;10780;50.942;4.028;2022-12-18T10:45:38;18.38;;;10.88;;
21243;SDS011;10780;50.942;4.028;2022-12-18T10:48:04;18.40;;;11.50;;
21243;SDS011;10780;50.942;4.028;2022-12-18T10:50:42;21.33;;;12.50;;
21243;SDS011;10780;50.942;4.028;2022-12-18T10:53:17;19.73;;;12.23;;
21243;SDS011;10780;50.942;4.028;2022-12-18T10:55:48;22.73;;;12.65;;
21243;SDS011;10780;50.942;4.028;2022-12-18T11:01:01;21.83;;;12.57;;
21243;SDS011;10780;50.942;4.028;2022-12-18T11:03:41;20.52;;;11.63;;
21243;SDS011;10780;50.942;4.028;2022-12-18T11:06:10;23.00;;;12.50;;
21243;SDS011;10780;50.942;4.028;2022-12-18T11:08:38;22.15;;;13.30;;
21243;SDS011;10780;50.942;4.028;2022-12-18T11:11:06;23.23;;;13.38;;
21243;SDS011;10780;50.942;4.028;2022-12-18T11:13:47;23.75;;;13.95;;
21243;SDS011;10780;50.942;4.028;2022-12-18T11:16:18;19.33;;;13.50;;
21243;SDS011;10780;50.942;4.028;2022-12-18T11:18:44;22.25;;;14.13;;
21243;SDS011;10780;50.942;4.028;2022-12-18T11:21:11;23.10;;;14.43;;
21243;SDS011;10780;50.942;4.028;2022-12-18T11:23:44;21.98;;;13.05;;
21243;SDS011;10780;50.942;4.028;2022-12-18T11:26:15;20.98;;;13.10;;
21243;SDS011;10780;50.942;4.028;2022-12-18T11:31:18;22.52;;;13.43;;
21243;SDS011;10780;50.942;4.028;2022-12-18T11:33:46;24.65;;;14.43;;
21243;SDS011;10780;50.942;4.028;2022-12-18T11:36:33;23.27;;;13.60;;
21243;SDS011;10780;50.942;4.028;2022-12-18T11:39:38;22.60;;;14.13;;
21243;SDS011;10780;50.942;4.028;2022-12-18T11:42:00;24.27;;;14.48;;
21243;SDS011;10780;50.942;4.028;2022-12-18T11:44:43;25.17;;;14.20;;
21243;SDS011;10780;50.942;4.028;2022-12-18T11:50:10;27.50;;;15.30;;
21243;SDS011;10780;50.942;4.028;2022-12-18T11:52:40;23.38;;;15.25;;
21243;SDS011;10780;50.942;4.028;2022-12-18T11:55:16;21.80;;;14.40;;
21243;SDS011;10780;50.942;4.028;2022-12-18T11:57:51;22.80;;;14.40;;
21243;SDS011;10780;50.942;4.028;2022-12-18T12:00:23;23.73;;;13.30;;
21243;SDS011;10780;50.942;4.028;2022-12-18T12:05:56;22.25;;;13.93;;
21243;SDS011;10780;50.942;4.028;2022-12-18T12:08:43;23.77;;;13.05;;
21243;SDS011;10780;50.942;4.028;2022-12-18T12:14:12;23.00;;;14.02;;
21243;SDS011;10780;50.942;4.028;2022-12-18T12:16:59;24.05;;;13.27;;
21243;SDS011;10780;50.942;4.028;2022-12-18T12:19:54;25.17;;;14.35;;
21243;SDS011;10780;50.942;4.028;2022-12-18T12:22:33;25.33;;;14.77;;
21243;SDS011;10780;50.942;4.028;2022-12-18T12:28:00;22.30;;;13.73;;
21243;SDS011;10780;50.942;4.028;2022-12-18T12:36:01;25.85;;;15.15;;
21243;SDS011;10780;50.942;4.028;2022-12-18T12:38:41;25.52;;;13.95;;
21243;SDS011;10780;50.942;4.028;2022-12-18T12:41:09;26.60;;;14.82;;
21243;SDS011;10780;50.942;4.028;2022-12-18T12:43:58;24.65;;;13.38;;
21243;SDS011;10780;50.942;4.028;2022-12-18T12:46:27;27.40;;;15.02;;
21243;SDS011;10780;50.942;4.028;2022-12-18T12:48:59;22.80;;;12.90;;
21243;SDS011;10780;50.942;4.028;2022-12-18T12:51:29;24.75;;;13.85;;
21243;SDS011;10780;50.942;4.028;2022-12-18T12:54:04;25.58;;;13.25;;
21243;SDS011;10780;50.942;4.028;2022-12-18T12:56:39;23.25;;;13.55;;
21243;SDS011;10780;50.942;4.028;2022-12-18T13:02:01;24.35;;;13.85;;
21243;SDS011;10780;50.942;4.028;2022-12-18T13:07:56;24.27;;;14.80;;
21243;SDS011;10780;50.942;4.028;2022-12-18T13:15:35;28.13;;;15.82;;
21243;SDS011;10780;50.942;4.028;2022-12-18T13:20:41;30.60;;;15.95;;
21243;SDS011;10780;50.942;4.028;2022-12-18T13:25:51;28.33;;;16.00;;
21243;SDS011;10780;50.942;4.028;2022-12-18T13:31:14;28.90;;;16.45;;
21243;SDS011;10780;50.942;4.028;2022-12-18T13:33:59;29.10;;;16.70;;
21243;SDS011;10780;50.942;4.028;2022-12-18T13:36:51;26.88;;;15.02;;
21243;SDS011;10780;50.942;4.028;2022-12-18T13:41:46;29.73;;;16.73;;
21243;SDS011;10780;50.942;4.028;2022-12-18T13:44:32;31.40;;;17.35;;
21243;SDS011;10780;50.942;4.028;2022-12-18T13:46:59;30.13;;;16.38;;
21243;SDS011;10780;50.942;4.028;2022-12-18T13:52:03;30.23;;;17.48;;
21243;SDS011;10780;50.942;4.028;2022-12-18T13:54:45;35.10;;;16.90;;
21243;SDS011;10780;50.942;4.028;2022-12-18T13:57:25;36.28;;;17.75;;
21243;SDS011;10780;50.942;4.028;2022-12-18T13:59:56;33.20;;;17.48;;
21243;SDS011;10780;50.942;4.028;2022-12-18T14:02:24;35.42;;;19.00;;
21243;SDS011;10780;50.942;4.028;2022-12-18T14:04:52;35.17;;;19.40;;
21243;SDS011;10780;50.942;4.028;2022-12-18T14:09:46;40.00;;;19.80;;
21243;SDS011;10780;50.942;4.028;2022-12-18T14:12:25;41.22;;;20.88;;
21243;SDS011;10780;50.942;4.028;2022-12-18T14:15:23;40.67;;;19.58;;
21243;SDS011;10780;50.942;4.028;2022-12-18T14:20:41;34.50;;;18.05;;
21243;SDS011;10780;50.942;4.028;2022-12-18T14:26:02;29.10;;;17.38;;
21243;SDS011;10780;50.942;4.028;2022-12-18T14:32:03;30.42;;;17.15;;
21243;SDS011;10780;50.942;4.028;2022-12-18T14:34:32;33.97;;;17.75;;
21243;SDS011;10780;50.942;4.028;2022-12-18T14:36:58;32.65;;;18.23;;
21243;SDS011;10780;50.942;4.028;2022-12-18T14:39:24;32.10;;;16.63;;
21243;SDS011;10780;50.942;4.028;2022-12-18T14:41:50;32.65;;;17.48;;
21243;SDS011;10780;50.942;4.028;2022-12-18T14:44:16;32.88;;;17.25;;
21243;SDS011;10780;50.942;4.028;2022-12-18T14:46:45;32.22;;;17.73;;
21243;SDS011;10780;50.942;4.028;2022-12-18T14:51:58;31.67;;;17.35;;
21243;SDS011;10780;50.942;4.028;2022-12-18T14:54:25;33.83;;;17.42;;
21243;SDS011;10780;50.942;4.028;2022-12-18T14:59:35;33.33;;;16.13;;
21243;SDS011;10780;50.942;4.028;2022-12-18T15:02:15;34.13;;;17.20;;
21243;SDS011;10780;50.942;4.028;2022-12-18T15:04:46;39.80;;;18.95;;
21243;SDS011;10780;50.942;4.028;2022-12-18T15:09:43;33.85;;;17.35;;
21243;SDS011;10780;50.942;4.028;2022-12-18T15:12:34;31.35;;;17.23;;
21243;SDS011;10780;50.942;4.028;2022-12-18T15:17:59;34.10;;;16.80;;
21243;SDS011;10780;50.942;4.028;2022-12-18T15:20:25;36.28;;;18.60;;
21243;SDS011;10780;50.942;4.028;2022-12-18T15:22:51;34.88;;;17.70;;
21243;SDS011;10780;50.942;4.028;2022-12-18T15:28:02;33.75;;;17.35;;
21243;SDS011;10780;50.942;4.028;2022-12-18T15:30:28;35.20;;;17.27;;
21243;SDS011;10780;50.942;4.028;2022-12-18T15:35:55;38.08;;;18.02;;
21243;SDS011;10780;50.942;4.028;2022-12-18T15:38:25;39.15;;;17.60;;
21243;SDS011;10780;50.942;4.028;2022-12-18T15:40:52;36.63;;;19.85;;
21243;SDS011;10780;50.942;4.028;2022-12-18T15:43:19;34.70;;;17.85;;
21243;SDS011;10780;50.942;4.028;2022-12-18T15:45:58;37.70;;;17.98;;
21243;SDS011;10780;50.942;4.028;2022-12-18T15:48:25;35.65;;;18.35;;
21243;SDS011;10780;50.942;4.028;2022-12-18T15:50:50;35.03;;;18.98;;
21243;SDS011;10780;50.942;4.028;2022-12-18T15:53:18;35.88;;;19.25;;
21243;SDS011;10780;50.942;4.028;2022-12-18T15:55:44;35.10;;;18.02;;
21243;SDS011;10780;50.942;4.028;2022-12-18T15:58:28;34.78;;;18.17;;
21243;SDS011;10780;50.942;4.028;2022-12-18T16:00:54;40.60;;;20.08;;
21243;SDS011;10780;50.942;4.028;2022-12-18T16:03:22;34.05;;;18.65;;
21243;SDS011;10780;50.942;4.028;2022-12-18T16:05:48;34.75;;;18.40;;
21243;SDS011;10780;50.942;4.028;2022-12-18T16:08:13;32.15;;;16.77;;
21243;SDS011;10780;50.942;4.028;2022-12-18T16:10:39;35.15;;;17.23;;
21243;SDS011;10780;50.942;4.028;2022-12-18T16:13:05;35.80;;;16.98;;
21243;SDS011;10780;50.942;4.028;2022-12-18T16:15:34;33.20;;;16.35;;
21243;SDS011;10780;50.942;4.028;2022-12-18T16:18:00;33.33;;;17.55;;
21243;SDS011;10780;50.942;4.028;2022-12-18T16:20:26;36.08;;;18.48;;
21243;SDS011;10780;50.942;4.028;2022-12-18T16:22:51;31.85;;;16.45;;
21243;SDS011;10780;50.942;4.028;2022-12-18T16:25:19;35.42;;;17.63;;
21243;SDS011;10780;50.942;4.028;2022-12-18T16:27:46;34.05;;;18.17;;
21243;SDS011;10780;50.942;4.028;2022-12-18T16:30:16;33.40;;;17.48;;
21243;SDS011;10780;50.942;4.028;2022-12-18T16:32:43;33.33;;;15.82;;
21243;SDS011;10780;50.942;4.028;2022-12-18T16:35:10;33.53;;;18.00;;
21243;SDS011;10780;50.942;4.028;2022-12-18T16:37:37;35.38;;;16.38;;